createdAt,value
2019-04-04T00:01:01.453Z,61.00
2019-04-04T00:03:32.309Z,61.21
2019-04-04T00:06:03.046Z,59.63
2019-04-04T00:08:33.717Z,59.90
2019-04-04T00:11:06.056Z,59.81
2019-04-04T00:13:37.161Z,59.25
2019-04-04T00:16:07.329Z,58.35
2019-04-04T00:18:37.730Z,57.95
2019-04-04T00:21:07.813Z,57.44
2019-04-04T00:23:38.588Z,57.06
2019-04-04T00:26:10.849Z,57.94
2019-04-04T00:28:41.891Z,58.61
2019-04-04T00:31:12.645Z,59.04
2019-04-04T00:33:43.285Z,59.21
2019-04-04T00:36:14.150Z,58.92
2019-04-04T00:38:45.009Z,59.04
2019-04-04T00:41:15.763Z,58.78
2019-04-04T00:43:47.436Z,58.39
2019-04-04T00:46:18.188Z,58.36
2019-04-04T00:48:49.043Z,59.94
2019-04-04T00:51:19.904Z,60.20
2019-04-04T00:53:50.654Z,60.12
2019-04-04T00:56:21.288Z,60.05
2019-04-04T00:58:52.580Z,58.51
2019-04-04T01:01:26.041Z,58.38
2019-04-04T01:03:55.083Z,59.38
2019-04-04T01:06:25.053Z,59.61
2019-04-04T01:08:55.584Z,63.65
2019-04-04T01:11:26.339Z,64.42
2019-04-04T01:13:57.858Z,65.79
2019-04-04T01:16:28.972Z,66.63
2019-04-04T01:18:59.830Z,66.50
2019-04-04T01:21:30.590Z,65.16
2019-04-04T01:24:01.235Z,64.79
2019-04-04T01:26:34.860Z,65.35
2019-04-04T01:29:05.737Z,65.77
2019-04-04T01:31:37.177Z,66.11
2019-04-04T01:34:07.727Z,67.01
2019-04-04T01:36:38.584Z,67.34
2019-04-04T01:39:09.321Z,67.74
2019-04-04T01:41:39.971Z,68.11
2019-04-04T01:44:11.314Z,68.08
2019-04-04T01:46:44.018Z,69.25
2019-04-04T01:49:14.295Z,69.32
2019-04-04T01:51:45.153Z,69.01
2019-04-04T01:54:16.020Z,68.25
2019-04-04T01:56:46.762Z,68.01
2019-04-04T01:59:17.396Z,68.04
2019-04-04T02:01:47.481Z,68.24
2019-04-04T02:04:17.998Z,68.41
2019-04-04T02:06:48.650Z,68.66
2019-04-04T02:09:19.512Z,68.84
2019-04-04T02:11:50.261Z,69.10
2019-04-04T02:14:21.018Z,69.17
2019-04-04T02:16:51.711Z,68.92
2019-04-04T02:19:24.588Z,69.72
2019-04-04T02:21:54.811Z,69.63
2019-04-04T02:24:25.578Z,68.82
2019-04-04T02:26:56.215Z,68.84
2019-04-04T02:29:26.853Z,68.88
2019-04-04T02:31:59.267Z,69.38
2019-04-04T02:34:29.896Z,69.66
2019-04-04T02:37:00.685Z,69.58
2019-04-04T02:39:32.706Z,70.26
2019-04-04T02:42:03.704Z,70.19
2019-04-04T02:44:35.404Z,70.06
2019-04-04T02:47:06.339Z,69.96
2019-04-04T02:49:37.094Z,69.87
2019-04-04T02:52:07.759Z,69.62
2019-04-04T02:54:38.393Z,69.68
2019-04-04T02:57:09.637Z,69.29
2019-04-04T02:59:40.415Z,69.23
2019-04-04T03:02:11.066Z,69.25
2019-04-04T03:04:45.683Z,69.59
2019-04-04T03:07:13.885Z,69.95
2019-04-04T03:09:44.672Z,69.94
2019-04-04T03:12:15.401Z,70.40
2019-04-04T03:14:46.061Z,71.41
2019-04-04T03:17:16.921Z,72.04
2019-04-04T03:19:47.692Z,72.52
2019-04-04T03:22:18.525Z,71.66
2019-04-04T03:24:49.385Z,71.96
2019-04-04T03:27:25.791Z,73.85
2019-04-04T03:29:52.335Z,75.00
2019-04-04T03:32:23.081Z,75.47
2019-04-04T03:34:53.710Z,73.37
2019-04-04T03:37:24.387Z,71.76
2019-04-04T03:39:55.259Z,70.50
2019-04-04T03:42:25.988Z,69.70
2019-04-04T03:44:57.763Z,69.76
2019-04-04T03:47:28.622Z,69.71
2019-04-04T03:49:59.476Z,69.33
2019-04-04T03:52:29.323Z,69.37
2019-04-04T03:54:59.867Z,67.92
2019-04-04T03:57:30.915Z,67.92
2019-04-04T04:00:05.693Z,66.43
2019-04-04T04:02:33.451Z,65.60
2019-04-04T04:05:04.314Z,64.60
2019-04-04T04:07:35.169Z,63.64
2019-04-04T04:10:06.622Z,65.86
2019-04-04T04:12:37.475Z,64.96
2019-04-04T04:15:08.346Z,64.45
2019-04-04T04:17:39.098Z,61.81
2019-04-04T04:20:09.746Z,59.37
2019-04-04T04:22:39.808Z,57.98
2019-04-04T04:25:10.851Z,58.94
2019-04-04T04:27:41.704Z,58.35
2019-04-04T04:30:14.297Z,57.43
2019-04-04T04:32:44.749Z,55.16
2019-04-04T04:35:15.600Z,54.47
2019-04-04T04:37:46.342Z,52.92
2019-04-04T04:40:17.111Z,51.58
2019-04-04T04:42:47.846Z,50.88
2019-04-04T04:45:19.536Z,49.99
2019-04-04T04:47:50.377Z,48.26
2019-04-04T04:50:21.147Z,47.05
2019-04-04T04:52:51.210Z,45.41
2019-04-04T04:55:21.731Z,45.21
2019-04-04T04:57:51.684Z,44.51
2019-04-04T05:00:22.217Z,44.23
2019-04-04T05:02:53.766Z,44.22
2019-04-04T05:05:24.646Z,43.16
2019-04-04T05:07:55.359Z,42.35
2019-04-04T05:10:26.238Z,42.25
2019-04-04T05:12:57.013Z,43.22
2019-04-04T05:15:27.644Z,42.25
2019-04-04T05:17:57.824Z,42.92
2019-04-04T05:20:29.833Z,41.75
2019-04-04T05:23:00.434Z,41.26
2019-04-04T05:25:31.311Z,41.78
2019-04-04T05:28:02.129Z,41.62
2019-04-04T05:30:32.790Z,41.00
2019-04-04T05:33:02.981Z,40.34
2019-04-04T05:35:33.993Z,38.69
2019-04-04T05:38:07.436Z,39.30
2019-04-04T05:40:36.742Z,40.22
2019-04-04T05:43:07.587Z,39.99
2019-04-04T05:45:39.269Z,39.91
2019-04-04T05:48:10.221Z,40.40
2019-04-04T05:50:43.315Z,39.15
2019-04-04T05:53:13.121Z,39.64
2019-04-04T05:55:44.073Z,38.45
2019-04-04T05:58:14.855Z,38.90
2019-04-04T06:00:46.840Z,38.68
2019-04-04T06:03:17.516Z,38.95
2019-04-04T06:05:48.361Z,39.53
2019-04-04T06:08:19.123Z,39.13
2019-04-04T06:10:50.099Z,39.08
2019-04-04T06:13:22.331Z,38.84
2019-04-04T06:15:52.809Z,37.71
2019-04-04T06:18:23.563Z,37.25
2019-04-04T06:20:54.214Z,37.59
2019-04-04T06:23:25.741Z,36.30
2019-04-04T06:25:56.419Z,36.82
2019-04-04T06:28:26.394Z,36.07
2019-04-04T06:30:56.801Z,36.64
2019-04-04T06:33:28.479Z,36.77
2019-04-04T06:36:07.823Z,36.62
2019-04-04T06:38:39.820Z,36.01
2019-04-04T06:41:10.351Z,36.03
2019-04-04T06:43:41.713Z,35.65
2019-04-04T06:46:13.719Z,35.66
2019-04-04T06:48:44.470Z,34.89
2019-04-04T06:51:15.326Z,34.80
2019-04-04T06:53:47.018Z,33.98
2019-04-04T06:56:17.757Z,34.25
2019-04-04T06:58:48.494Z,32.81
2019-04-04T07:01:21.883Z,33.26
2019-04-04T07:03:52.668Z,33.96
2019-04-04T07:06:23.328Z,33.55
2019-04-04T07:08:53.980Z,33.37
2019-04-04T07:11:24.834Z,32.76
2019-04-04T07:13:58.752Z,31.36
2019-04-04T07:16:27.655Z,31.23
2019-04-04T07:18:57.622Z,32.27
2019-04-04T07:21:28.161Z,31.78
2019-04-04T07:23:59.513Z,31.90
2019-04-04T07:26:30.465Z,31.11
2019-04-04T07:29:01.218Z,30.58
2019-04-04T07:31:34.019Z,28.97
2019-04-04T07:34:04.074Z,29.87
2019-04-04T07:36:34.816Z,29.27
2019-04-04T07:39:06.232Z,29.01
2019-04-04T07:41:40.085Z,28.78
2019-04-04T07:44:08.709Z,29.68
2019-04-04T07:46:41.295Z,29.43
2019-04-04T07:49:12.791Z,28.44
2019-04-04T07:51:43.544Z,28.10
2019-04-04T07:54:14.279Z,28.44
2019-04-04T07:56:48.650Z,28.14
2019-04-04T07:59:17.239Z,27.46
2019-04-04T08:01:51.443Z,28.56
2019-04-04T08:04:21.817Z,28.49
2019-04-04T08:06:53.433Z,27.90
2019-04-04T08:09:26.241Z,27.45
2019-04-04T08:11:56.120Z,26.41
2019-04-04T08:14:26.874Z,27.38
2019-04-04T08:16:57.607Z,27.63
2019-04-04T08:19:28.180Z,26.86
2019-04-04T08:21:59.038Z,27.39
2019-04-04T08:24:29.887Z,26.88
2019-04-04T08:27:00.747Z,26.56
2019-04-04T08:29:33.237Z,25.80
2019-04-04T08:32:03.582Z,25.78
2019-04-04T08:34:36.460Z,26.77
2019-04-04T08:37:06.418Z,26.59
2019-04-04T08:39:37.259Z,26.82
2019-04-04T08:42:08.132Z,25.89
2019-04-04T08:44:38.887Z,26.00
2019-04-04T08:47:09.843Z,26.00
2019-04-04T08:49:40.803Z,26.41
2019-04-04T08:52:16.865Z,25.85
2019-04-04T08:54:43.535Z,25.54
2019-04-04T08:57:14.289Z,25.89
2019-04-04T08:59:45.656Z,25.41
2019-04-04T09:02:16.411Z,25.30
2019-04-04T09:04:47.061Z,25.20
2019-04-04T09:07:17.596Z,24.60
2019-04-04T09:09:48.562Z,24.86
2019-04-04T09:12:19.323Z,24.34
2019-04-04T09:14:50.080Z,25.17
2019-04-04T09:17:20.731Z,25.19
2019-04-04T09:19:51.585Z,25.45
2019-04-04T09:22:24.088Z,25.75
2019-04-04T09:24:54.333Z,25.78
2019-04-04T09:27:25.083Z,26.32
2019-04-04T09:29:55.708Z,25.91
2019-04-04T09:32:26.591Z,25.27
2019-04-04T09:34:57.335Z,26.06
2019-04-04T09:37:27.972Z,25.46
2019-04-04T09:39:58.725Z,25.22
2019-04-04T09:42:29.377Z,25.44
2019-04-04T09:45:00.250Z,24.92
2019-04-04T09:47:31.910Z,24.79
2019-04-04T09:50:02.882Z,24.35
2019-04-04T09:52:33.635Z,24.87
2019-04-04T09:55:05.857Z,24.60
2019-04-04T09:57:36.677Z,24.47
2019-04-04T10:00:15.903Z,24.32
2019-04-04T10:02:46.573Z,24.60
2019-04-04T10:05:17.431Z,25.18
2019-04-04T10:07:48.166Z,24.97
2019-04-04T10:10:18.919Z,25.31
2019-04-04T10:12:49.587Z,24.06
2019-04-04T10:15:20.444Z,24.90
2019-04-04T10:17:51.196Z,24.71
2019-04-04T10:20:21.950Z,25.09
2019-04-04T10:22:52.606Z,25.37
2019-04-04T10:25:23.354Z,24.67
2019-04-04T10:27:54.210Z,24.29
2019-04-04T10:30:24.949Z,24.74
2019-04-04T10:32:55.600Z,24.84
2019-04-04T10:35:26.456Z,25.57
2019-04-04T10:37:57.331Z,25.51
2019-04-04T10:40:28.087Z,24.40
2019-04-04T10:42:58.739Z,24.69
2019-04-04T10:45:29.472Z,25.09
2019-04-04T10:48:00.344Z,23.90
2019-04-04T10:50:31.203Z,23.93
2019-04-04T10:53:01.841Z,24.11
2019-04-04T10:55:32.504Z,24.22
2019-04-04T10:58:03.361Z,23.78
2019-04-04T11:00:34.198Z,23.81
2019-04-04T11:03:04.975Z,23.42
2019-04-04T11:05:35.620Z,24.99
2019-04-04T11:08:06.480Z,24.87
2019-04-04T11:10:37.336Z,23.65
2019-04-04T11:13:08.086Z,24.05
2019-04-04T11:15:38.739Z,23.80
2019-04-04T11:18:09.599Z,23.69
2019-04-04T11:20:40.452Z,23.58
2019-04-04T11:23:11.203Z,23.27
2019-04-04T11:25:41.841Z,23.41
2019-04-04T11:28:12.493Z,22.95
2019-04-04T11:30:43.369Z,22.82
2019-04-04T11:33:13.999Z,24.03
2019-04-04T11:35:44.769Z,23.95
2019-04-04T11:38:15.402Z,23.42
2019-04-04T11:40:46.280Z,22.83
2019-04-04T11:43:17.134Z,22.73
2019-04-04T11:45:47.888Z,21.73
2019-04-04T11:48:18.522Z,22.71
2019-04-04T11:50:49.482Z,22.63
2019-04-04T11:53:20.235Z,22.59
2019-04-04T11:55:51.003Z,23.39
2019-04-04T11:58:21.643Z,22.74
2019-04-04T12:00:59.978Z,23.13
2019-04-04T12:03:30.716Z,22.80
2019-04-04T12:06:01.472Z,23.42
2019-04-04T12:08:32.239Z,24.41
2019-04-04T12:11:02.893Z,23.64
2019-04-04T12:13:33.755Z,23.21
2019-04-04T12:16:04.591Z,23.38
2019-04-04T12:18:35.359Z,23.70
2019-04-04T12:21:06.013Z,23.09
2019-04-04T12:23:36.864Z,23.03
2019-04-04T12:26:07.607Z,22.76
2019-04-04T12:28:38.372Z,23.08
2019-04-04T12:31:09.027Z,23.02
2019-04-04T12:33:39.557Z,23.18
2019-04-04T12:36:10.430Z,23.83
2019-04-04T12:38:41.285Z,23.78
2019-04-04T12:41:12.022Z,23.66
2019-04-04T12:43:42.774Z,22.39
2019-04-04T12:46:13.632Z,22.53
2019-04-04T12:48:45.307Z,23.12
2019-04-04T12:51:16.286Z,22.76
2019-04-04T12:53:46.920Z,22.75
2019-04-04T12:56:17.772Z,22.86
2019-04-04T12:58:48.527Z,22.43
2019-04-04T13:01:21.281Z,22.62
2019-04-04T13:03:51.384Z,22.33
2019-04-04T13:06:22.118Z,22.19
2019-04-04T13:08:52.873Z,22.83
2019-04-04T13:11:23.647Z,22.24
2019-04-04T13:13:54.278Z,22.82
2019-04-04T13:16:24.946Z,22.87
2019-04-04T13:18:55.680Z,22.73
2019-04-04T13:21:26.556Z,22.93
2019-04-04T13:23:57.189Z,23.30
2019-04-04T13:26:27.963Z,23.36
2019-04-04T13:28:58.612Z,23.72
2019-04-04T13:31:29.450Z,24.18
2019-04-04T13:34:00.235Z,23.63
2019-04-04T13:36:30.975Z,23.78
2019-04-04T13:39:01.628Z,23.70
2019-04-04T13:41:32.466Z,23.29
2019-04-04T13:44:03.238Z,23.34
2019-04-04T13:46:33.989Z,23.11
2019-04-04T13:49:05.562Z,22.85
2019-04-04T13:51:36.419Z,22.88
2019-04-04T13:54:07.072Z,22.65
2019-04-04T13:56:37.928Z,22.94
2019-04-04T13:59:08.783Z,22.70
2019-04-04T14:01:42.011Z,23.41
2019-04-04T14:04:11.618Z,22.68
2019-04-04T14:06:42.474Z,23.39
2019-04-04T14:09:13.330Z,23.40
2019-04-04T14:11:44.087Z,23.43
2019-04-04T14:14:14.723Z,23.44
2019-04-04T14:16:45.596Z,23.47
2019-04-04T14:19:16.449Z,22.49
2019-04-04T14:21:47.185Z,20.96
2019-04-04T14:24:17.854Z,20.21
2019-04-04T14:26:48.715Z,19.17
2019-04-04T14:29:27.269Z,19.29
2019-04-04T14:31:51.650Z,19.87
2019-04-04T14:34:22.286Z,21.29
2019-04-04T14:36:52.947Z,22.27
2019-04-04T14:39:23.691Z,23.69
2019-04-04T14:41:54.547Z,23.39
2019-04-04T14:44:25.333Z,24.08
2019-04-04T14:46:55.954Z,24.74
2019-04-04T14:49:27.847Z,24.72
2019-04-04T14:51:58.791Z,25.32
2019-04-04T14:54:29.967Z,25.46
2019-04-04T14:57:00.716Z,25.17
2019-04-04T14:59:31.585Z,25.42
2019-04-04T15:02:02.440Z,25.40
2019-04-04T15:04:33.069Z,25.92
2019-04-04T15:07:03.039Z,25.64
2019-04-04T15:09:33.577Z,25.66
2019-04-04T15:12:04.313Z,25.66
2019-04-04T15:14:34.979Z,26.13
2019-04-04T15:17:05.836Z,26.82
2019-04-04T15:19:36.585Z,26.31
2019-04-04T15:22:07.343Z,26.06
2019-04-04T15:24:37.974Z,26.31
2019-04-04T15:27:08.054Z,26.93
2019-04-04T15:29:38.579Z,26.56
2019-04-04T15:32:09.213Z,26.69
2019-04-04T15:34:39.181Z,26.81
2019-04-04T15:37:09.822Z,26.85
2019-04-04T15:39:40.389Z,26.21
2019-04-04T15:42:10.612Z,26.30
2019-04-04T15:44:41.352Z,26.36
2019-04-04T15:47:12.017Z,26.76
2019-04-04T15:49:43.890Z,26.98
2019-04-04T15:52:14.746Z,27.14
2019-04-04T15:54:45.607Z,27.17
2019-04-04T15:57:16.363Z,27.62
2019-04-04T15:59:47.014Z,27.64
2019-04-04T16:02:19.384Z,27.67
2019-04-04T16:04:50.256Z,27.85
2019-04-04T16:07:20.911Z,28.33
2019-04-04T16:09:50.871Z,28.55
2019-04-04T16:12:21.387Z,28.87
2019-04-04T16:14:52.148Z,28.92
2019-04-04T16:17:22.907Z,29.13
2019-04-04T16:19:53.769Z,28.80
2019-04-04T16:22:26.164Z,29.20
2019-04-04T16:24:58.253Z,29.56
2019-04-04T16:27:29.092Z,29.35
2019-04-04T16:29:59.045Z,29.54
2019-04-04T16:32:29.563Z,29.63
2019-04-04T16:35:02.172Z,30.41
2019-04-04T16:37:33.028Z,31.02
2019-04-04T16:40:09.260Z,31.55
2019-04-04T16:42:35.558Z,33.71
2019-04-04T16:45:07.690Z,32.27
2019-04-04T16:47:38.178Z,33.35
2019-04-04T16:50:09.050Z,34.16
2019-04-04T16:52:39.904Z,35.40
2019-04-04T16:55:10.643Z,36.51
2019-04-04T16:57:43.294Z,38.28
2019-04-04T17:00:13.700Z,38.81
2019-04-04T17:02:43.660Z,38.33
2019-04-04T17:05:14.084Z,38.97
2019-04-04T17:07:46.455Z,39.79
2019-04-04T17:10:17.020Z,40.18
2019-04-04T17:12:47.877Z,41.50
2019-04-04T17:15:18.620Z,41.87
2019-04-04T17:17:49.387Z,42.67
2019-04-04T17:20:20.900Z,43.15
2019-04-04T17:22:51.608Z,45.06
2019-04-04T17:25:21.558Z,46.44
2019-04-04T17:27:52.075Z,46.32
2019-04-04T17:30:24.201Z,49.08
2019-04-04T17:32:55.502Z,49.32
2019-04-04T17:35:26.802Z,49.51
2019-04-04T17:37:57.739Z,50.39
2019-04-04T17:40:28.627Z,48.67
2019-04-04T17:42:59.379Z,48.85
2019-04-04T17:45:30.147Z,47.39
2019-04-04T17:48:01.284Z,47.74
2019-04-04T17:50:33.356Z,49.21
2019-04-04T17:53:04.522Z,48.93
2019-04-04T17:55:35.644Z,47.49
2019-04-04T17:58:06.363Z,48.33
2019-04-04T18:00:37.214Z,47.20
2019-04-04T18:03:07.947Z,47.73
2019-04-04T18:05:38.229Z,48.40
2019-04-04T18:08:08.740Z,46.64
2019-04-04T18:10:41.789Z,47.61
2019-04-04T18:13:18.224Z,47.39
2019-04-04T18:15:49.096Z,47.53
2019-04-04T18:18:20.575Z,47.84
2019-04-04T18:20:51.207Z,47.50
2019-04-04T18:23:21.066Z,47.63
2019-04-04T18:25:51.606Z,48.84
2019-04-04T18:28:22.462Z,50.17
2019-04-04T18:30:53.313Z,49.07
2019-04-04T18:33:23.060Z,48.38
2019-04-04T18:35:53.475Z,49.45
2019-04-04T18:38:24.350Z,47.94
2019-04-04T18:40:55.208Z,47.99
2019-04-04T18:43:26.063Z,52.11
2019-04-04T18:45:56.983Z,56.01
2019-04-04T18:48:27.681Z,56.26
2019-04-04T18:50:59.358Z,56.36
2019-04-04T18:53:30.429Z,58.76
2019-04-04T18:56:01.364Z,59.28
2019-04-04T18:58:45.619Z,58.43
2019-04-04T19:01:18.114Z,57.56
2019-04-04T19:03:48.971Z,56.67
2019-04-04T19:06:19.728Z,55.44
2019-04-04T19:08:50.910Z,55.42
2019-04-04T19:11:22.047Z,58.19
2019-04-04T19:13:52.907Z,59.00
2019-04-04T19:16:23.637Z,58.81
2019-04-04T19:18:53.867Z,59.29
2019-04-04T19:21:24.141Z,60.15
2019-04-04T19:23:56.199Z,60.57
2019-04-04T19:26:29.210Z,61.12
2019-04-04T19:29:00.192Z,61.98
2019-04-04T19:31:30.923Z,62.30
2019-04-04T19:34:01.102Z,61.67
2019-04-04T19:36:32.759Z,61.15
2019-04-04T19:39:04.837Z,60.74
2019-04-04T19:41:35.694Z,60.85
2019-04-04T19:44:06.331Z,61.24
2019-04-04T19:46:37.424Z,61.15
2019-04-04T19:49:07.959Z,61.13
2019-04-04T19:51:39.939Z,59.05
2019-04-04T19:54:10.876Z,59.49
2019-04-04T19:56:40.947Z,58.79
2019-04-04T19:59:11.466Z,57.47
2019-04-04T20:01:42.341Z,58.30
2019-04-04T20:04:13.296Z,60.20
2019-04-04T20:06:43.726Z,61.57
2019-04-04T20:09:13.700Z,61.68
2019-04-04T20:11:44.228Z,59.94
2019-04-04T20:14:14.980Z,60.92
2019-04-04T20:16:45.041Z,62.22
2019-04-04T20:19:15.553Z,61.41
2019-04-04T20:21:46.534Z,63.22
2019-04-04T20:24:16.972Z,62.79
2019-04-04T20:26:47.727Z,61.79
2019-04-04T20:29:18.373Z,62.09
2019-04-04T20:31:49.541Z,61.93
2019-04-04T20:34:20.176Z,62.90
2019-04-04T20:36:50.948Z,63.33
2019-04-04T20:39:23.032Z,64.06
2019-04-04T20:41:53.479Z,67.73
2019-04-04T20:44:24.231Z,69.00
2019-04-04T20:46:54.886Z,67.86
2019-04-04T20:49:25.722Z,67.37
2019-04-04T20:51:57.619Z,67.29
2019-04-04T20:54:28.575Z,67.76
2019-04-04T20:56:59.328Z,67.48
2019-04-04T20:59:29.981Z,68.26
2019-04-04T21:02:00.821Z,68.82
2019-04-04T21:04:31.574Z,67.77
2019-04-04T21:07:02.138Z,68.45
2019-04-04T21:09:32.896Z,67.25
2019-04-04T21:12:03.545Z,68.61
2019-04-04T21:14:34.281Z,69.58
2019-04-04T21:17:05.155Z,69.50
2019-04-04T21:19:35.789Z,68.92
2019-04-04T21:22:05.764Z,69.89
2019-04-04T21:24:36.292Z,68.99
2019-04-04T21:27:06.932Z,68.71
2019-04-04T21:29:36.891Z,68.98
2019-04-04T21:32:07.415Z,68.86
2019-04-04T21:34:38.064Z,69.29
2019-04-04T21:37:08.242Z,69.08
2019-04-04T21:39:38.648Z,69.32
2019-04-04T21:42:08.828Z,69.21
2019-04-04T21:44:39.354Z,69.21
2019-04-04T21:47:10.176Z,69.13
2019-04-04T21:49:41.056Z,70.96
2019-04-04T21:52:12.639Z,71.45
2019-04-04T21:54:43.495Z,70.58
2019-04-04T21:57:14.149Z,69.06
2019-04-04T21:59:44.984Z,66.58
2019-04-04T22:02:15.863Z,63.26
2019-04-04T22:04:46.598Z,61.75
2019-04-04T22:07:17.365Z,61.71
2019-04-04T22:09:48.018Z,61.49
2019-04-04T22:12:18.873Z,62.96
2019-04-04T22:14:49.631Z,66.17
2019-04-04T22:17:20.265Z,67.37
2019-04-04T22:19:51.047Z,68.05
2019-04-04T22:22:21.899Z,68.63
2019-04-04T22:24:52.750Z,68.91
2019-04-04T22:27:23.379Z,70.74
2019-04-04T22:29:53.347Z,71.71
2019-04-04T22:32:23.762Z,71.44
2019-04-04T22:34:53.833Z,71.10
2019-04-04T22:37:24.356Z,71.23
2019-04-04T22:39:55.131Z,71.06
2019-04-04T22:42:25.880Z,71.29
2019-04-04T22:44:56.739Z,70.59
2019-04-04T22:47:27.588Z,70.73
2019-04-04T22:49:58.342Z,70.55
2019-04-04T22:52:30.116Z,70.60
2019-04-04T22:55:00.857Z,69.76
2019-04-04T22:57:30.819Z,69.35
2019-04-04T23:00:01.368Z,68.58
2019-04-04T23:02:32.116Z,68.56
2019-04-04T23:05:02.769Z,69.25
2019-04-04T23:07:33.603Z,69.72
2019-04-04T23:10:06.577Z,69.87
2019-04-04T23:12:37.076Z,69.01
2019-04-04T23:15:11.412Z,68.98
2019-04-04T23:17:41.859Z,68.56
2019-04-04T23:20:12.614Z,68.68
2019-04-04T23:22:52.737Z,69.42
2019-04-04T23:25:15.451Z,69.08
2019-04-04T23:27:46.305Z,69.93
2019-04-04T23:30:17.059Z,70.47
2019-04-04T23:32:47.702Z,71.02
2019-04-04T23:35:18.340Z,69.50
2019-04-04T23:37:49.191Z,67.08
2019-04-04T23:40:20.071Z,67.50
2019-04-04T23:42:50.801Z,68.00
2019-04-04T23:45:21.452Z,67.93
2019-04-04T23:47:51.534Z,67.58
2019-04-04T23:50:22.038Z,67.49
2019-04-04T23:52:52.718Z,67.37
2019-04-04T23:55:23.445Z,66.91
2019-04-04T23:57:54.326Z,66.99
